createdAt,value
2023-03-15T00:02:07.225Z,9.33
2023-03-15T00:04:35.359Z,9.29
2023-03-15T00:07:03.249Z,9.45
2023-03-15T00:09:31.111Z,9.45
2023-03-15T00:11:58.760Z,9.42
2023-03-15T00:14:26.718Z,9.45
2023-03-15T00:16:54.876Z,9.36
2023-03-15T00:19:22.791Z,9.35
2023-03-15T00:21:50.411Z,9.39
2023-03-15T00:24:18.370Z,9.47
2023-03-15T00:26:45.970Z,9.54
2023-03-15T00:29:14.050Z,9.49
2023-03-15T00:31:41.774Z,9.52
2023-03-15T00:34:09.656Z,9.53
2023-03-15T00:36:37.764Z,9.55
2023-03-15T00:39:05.712Z,9.60
2023-03-15T00:41:33.956Z,9.71
2023-03-15T00:44:04.253Z,9.71
2023-03-15T00:46:32.004Z,9.67
2023-03-15T00:48:59.930Z,9.75
2023-03-15T00:51:27.687Z,9.77
2023-03-15T00:53:55.856Z,9.80
2023-03-15T00:56:27.065Z,9.78
2023-03-15T00:58:55.078Z,9.83
2023-03-15T01:01:26.099Z,9.90
2023-03-15T01:03:54.510Z,9.81
2023-03-15T01:06:25.210Z,9.88
2023-03-15T01:08:55.846Z,8.70
2023-03-15T01:11:26.378Z,7.75
2023-03-15T01:13:57.882Z,7.14
2023-03-15T01:16:27.281Z,6.82
2023-03-15T01:18:55.808Z,6.48
2023-03-15T01:21:24.565Z,6.31
2023-03-15T01:23:53.557Z,5.88
2023-03-15T01:26:23.335Z,5.79
2023-03-15T01:28:51.680Z,5.49
2023-03-15T01:31:26.736Z,5.52
2023-03-15T01:33:55.261Z,5.38
2023-03-15T01:36:23.257Z,5.17
2023-03-15T01:38:51.727Z,4.97
2023-03-15T01:41:25.921Z,4.74
2023-03-15T01:43:54.415Z,4.67
2023-03-15T01:46:34.195Z,4.73
2023-03-15T01:49:19.015Z,4.43
2023-03-15T01:52:06.787Z,4.26
2023-03-15T01:54:50.984Z,4.27
2023-03-15T01:57:25.894Z,4.05
2023-03-15T01:59:57.682Z,4.15
2023-03-15T02:02:26.244Z,4.04
2023-03-15T02:05:07.068Z,4.00
2023-03-15T02:07:34.928Z,4.10
2023-03-15T02:10:12.357Z,4.07
2023-03-15T02:12:46.382Z,4.11
2023-03-15T02:15:15.692Z,4.18
2023-03-15T02:17:46.350Z,4.07
2023-03-15T02:20:17.530Z,4.11
2023-03-15T02:22:56.092Z,4.01
2023-03-15T02:25:51.494Z,3.98
2023-03-15T02:28:20.641Z,3.86
2023-03-15T02:30:49.375Z,3.84
2023-03-15T02:33:30.094Z,3.78
2023-03-15T02:36:15.155Z,3.84
2023-03-15T02:38:43.877Z,3.89
2023-03-15T02:41:17.083Z,3.85
2023-03-15T02:43:45.955Z,3.89
2023-03-15T02:46:15.110Z,3.80
2023-03-15T02:48:44.976Z,3.97
2023-03-15T02:51:27.160Z,4.04
2023-03-15T02:53:54.848Z,3.96
2023-03-15T02:56:23.090Z,3.90
2023-03-15T02:58:50.943Z,3.92
2023-03-15T03:01:20.085Z,3.86
2023-03-15T03:03:48.511Z,3.88
2023-03-15T03:06:17.983Z,3.80
2023-03-15T03:08:47.792Z,3.73
2023-03-15T03:11:19.324Z,3.75
2023-03-15T03:13:47.435Z,3.75
2023-03-15T03:16:15.416Z,3.69
2023-03-15T03:18:44.469Z,3.73
2023-03-15T03:21:14.834Z,3.75
2023-03-15T03:23:46.296Z,3.66
2023-03-15T03:26:17.794Z,3.61
2023-03-15T03:28:48.749Z,3.66
2023-03-15T03:31:24.479Z,3.64
2023-03-15T03:33:55.206Z,3.78
2023-03-15T03:36:24.972Z,3.79
2023-03-15T03:38:57.239Z,3.79
2023-03-15T03:41:25.684Z,3.71
2023-03-15T03:43:53.344Z,3.72
2023-03-15T03:46:23.758Z,3.68
2023-03-15T03:48:53.962Z,3.73
2023-03-15T03:51:23.279Z,3.85
2023-03-15T03:53:51.144Z,3.98
2023-03-15T03:56:19.233Z,3.93
2023-03-15T03:58:47.128Z,4.00
2023-03-15T04:01:22.570Z,3.95
2023-03-15T04:03:53.037Z,3.80
2023-03-15T04:06:23.229Z,3.83
2023-03-15T04:08:50.935Z,3.79
2023-03-15T04:11:28.703Z,3.76
2023-03-15T04:14:00.222Z,3.77
2023-03-15T04:16:29.778Z,3.86
2023-03-15T04:19:08.413Z,3.91
2023-03-15T04:21:38.179Z,3.91
2023-03-15T04:24:17.732Z,3.88
2023-03-15T04:26:58.175Z,3.84
2023-03-15T04:29:44.306Z,3.77
2023-03-15T04:32:22.314Z,3.75
2023-03-15T04:35:04.432Z,3.84
2023-03-15T04:38:01.652Z,3.82
2023-03-15T04:40:50.139Z,3.79
2023-03-15T04:43:27.981Z,3.82
2023-03-15T04:46:10.694Z,3.68
2023-03-15T04:48:57.364Z,3.71
2023-03-15T04:51:42.117Z,3.70
2023-03-15T04:54:23.392Z,3.63
2023-03-15T04:57:15.946Z,3.83
2023-03-15T04:59:51.413Z,3.80
2023-03-15T05:02:43.176Z,3.70
2023-03-15T05:05:29.445Z,3.75
2023-03-15T05:08:10.549Z,3.79
2023-03-15T05:10:59.261Z,3.79
2023-03-15T05:13:50.117Z,3.87
2023-03-15T05:16:36.756Z,3.96
2023-03-15T05:19:20.342Z,4.05
2023-03-15T05:22:14.571Z,3.86
2023-03-15T05:25:11.497Z,3.87
2023-03-15T05:27:56.038Z,3.95
2023-03-15T05:30:40.156Z,3.96
2023-03-15T05:33:22.548Z,3.98
2023-03-15T05:36:09.460Z,4.02
2023-03-15T05:38:49.624Z,4.18
2023-03-15T05:41:25.123Z,4.20
2023-03-15T05:44:13.121Z,4.13
2023-03-15T05:46:56.225Z,4.15
2023-03-15T05:49:53.750Z,4.41
2023-03-15T05:52:47.250Z,4.22
2023-03-15T05:55:31.988Z,4.18
2023-03-15T05:58:26.959Z,4.15
2023-03-15T06:01:13.346Z,3.95
2023-03-15T06:04:01.354Z,4.27
2023-03-15T06:06:33.817Z,4.29
2023-03-15T06:09:03.277Z,4.17
2023-03-15T06:11:31.431Z,4.33
2023-03-15T06:14:00.936Z,4.37
2023-03-15T06:16:37.089Z,4.38
2023-03-15T06:19:05.523Z,4.42
2023-03-15T06:21:33.566Z,4.43
2023-03-15T06:24:02.640Z,4.49
2023-03-15T06:26:30.842Z,4.58
2023-03-15T06:29:03.842Z,4.63
2023-03-15T06:31:31.869Z,4.57
2023-03-15T06:34:05.231Z,4.65
2023-03-15T06:36:34.679Z,4.76
2023-03-15T06:39:02.858Z,4.98
2023-03-15T06:41:32.586Z,4.83
2023-03-15T06:44:10.961Z,4.90
2023-03-15T06:46:40.038Z,4.85
2023-03-15T06:49:07.963Z,4.76
2023-03-15T06:51:37.011Z,4.88
2023-03-15T06:54:04.676Z,4.88
2023-03-15T06:56:37.336Z,4.96
2023-03-15T06:59:05.548Z,5.24
2023-03-15T07:01:33.545Z,5.38
2023-03-15T07:04:01.228Z,5.33
2023-03-15T07:06:29.439Z,5.31
2023-03-15T07:08:57.241Z,4.99
2023-03-15T07:11:25.306Z,5.15
2023-03-15T07:13:53.120Z,5.14
2023-03-15T07:16:21.247Z,5.10
2023-03-15T07:18:50.387Z,5.18
2023-03-15T07:21:18.376Z,5.00
2023-03-15T07:23:46.005Z,4.98
2023-03-15T07:26:14.007Z,4.94
2023-03-15T07:28:43.774Z,5.15
2023-03-15T07:31:12.424Z,5.08
2023-03-15T07:33:41.706Z,5.10
2023-03-15T07:36:09.940Z,5.19
2023-03-15T07:38:37.679Z,5.18
2023-03-15T07:41:06.988Z,5.43
2023-03-15T07:43:35.476Z,6.02
2023-03-15T07:46:15.936Z,6.41
2023-03-15T07:48:43.719Z,6.70
2023-03-15T07:51:11.989Z,7.50
2023-03-15T07:53:39.735Z,7.89
2023-03-15T07:56:07.886Z,8.88
2023-03-15T07:58:35.684Z,9.26
2023-03-15T08:01:03.640Z,9.54
2023-03-15T08:03:31.607Z,9.10
2023-03-15T08:05:59.497Z,8.60
2023-03-15T08:08:27.455Z,7.96
2023-03-15T08:10:56.089Z,8.00
2023-03-15T08:13:24.373Z,7.84
2023-03-15T08:15:52.585Z,7.64
2023-03-15T08:18:20.239Z,7.60
2023-03-15T08:20:48.173Z,7.43
2023-03-15T08:23:17.367Z,7.36
2023-03-15T08:25:45.982Z,7.71
2023-03-15T08:28:14.121Z,7.30
2023-03-15T08:30:42.183Z,7.13
2023-03-15T08:33:10.166Z,7.13
2023-03-15T08:35:38.328Z,7.01
2023-03-15T08:38:06.016Z,7.10
2023-03-15T08:40:33.997Z,7.30
2023-03-15T08:43:01.675Z,7.15
2023-03-15T08:45:30.503Z,6.70
2023-03-15T08:47:59.077Z,6.85
2023-03-15T08:50:28.732Z,7.31
2023-03-15T08:52:56.537Z,7.37
2023-03-15T08:55:24.453Z,7.14
2023-03-15T08:57:52.212Z,7.54
2023-03-15T09:00:22.804Z,7.71
2023-03-15T09:02:54.244Z,7.72
2023-03-15T09:05:23.663Z,7.63
2023-03-15T09:07:53.242Z,8.32
2023-03-15T09:10:22.162Z,8.97
2023-03-15T09:12:53.716Z,9.17
2023-03-15T09:15:22.067Z,9.41
2023-03-15T09:17:51.898Z,10.45
2023-03-15T09:20:22.886Z,11.27
2023-03-15T09:22:53.374Z,11.72
2023-03-15T09:25:22.523Z,12.03
2023-03-15T09:27:50.659Z,11.90
2023-03-15T09:30:18.923Z,12.54
2023-03-15T09:32:46.891Z,12.99
2023-03-15T09:35:18.067Z,11.65
2023-03-15T09:37:46.612Z,11.09
2023-03-15T09:40:22.227Z,10.61
2023-03-15T09:42:57.751Z,11.05
2023-03-15T09:45:31.541Z,12.27
2023-03-15T09:48:23.885Z,13.47
2023-03-15T09:50:53.373Z,13.37
2023-03-15T09:53:33.229Z,12.35
2023-03-15T09:56:01.277Z,11.66
2023-03-15T09:58:32.785Z,10.36
2023-03-15T10:01:06.545Z,9.96
2023-03-15T10:03:42.869Z,10.22
2023-03-15T10:06:17.554Z,10.74
2023-03-15T10:08:47.483Z,11.81
2023-03-15T10:11:35.754Z,11.69
2023-03-15T10:14:33.920Z,10.79
2023-03-15T10:17:08.932Z,11.23
2023-03-15T10:19:45.882Z,11.73
2023-03-15T10:22:13.724Z,11.05
2023-03-15T10:24:57.397Z,12.38
2023-03-15T10:27:32.388Z,12.39
2023-03-15T10:30:01.341Z,11.71
2023-03-15T10:32:38.018Z,10.67
2023-03-15T10:35:16.777Z,9.62
2023-03-15T10:37:45.267Z,9.26
2023-03-15T10:40:16.278Z,8.75
2023-03-15T10:42:46.725Z,8.82
2023-03-15T10:45:25.365Z,8.83
2023-03-15T10:48:00.356Z,8.63
2023-03-15T10:50:34.044Z,8.76
2023-03-15T10:53:08.893Z,9.02
2023-03-15T10:55:42.254Z,9.58
2023-03-15T10:58:21.276Z,9.44
2023-03-15T11:00:59.193Z,9.16
2023-03-15T11:03:27.439Z,8.71
2023-03-15T11:05:57.532Z,8.69
2023-03-15T11:08:45.813Z,8.71
2023-03-15T11:11:13.465Z,8.48
2023-03-15T11:13:54.629Z,8.45
2023-03-15T11:16:23.025Z,8.42
2023-03-15T11:19:03.635Z,8.14
2023-03-15T11:21:33.862Z,7.95
2023-03-15T11:24:04.482Z,8.19
2023-03-15T11:26:41.079Z,8.03
2023-03-15T11:29:24.265Z,7.96
2023-03-15T11:31:53.762Z,8.23
2023-03-15T11:34:41.710Z,8.19
2023-03-15T11:37:18.526Z,8.52
2023-03-15T11:40:12.057Z,8.70
2023-03-15T11:42:51.924Z,8.64
2023-03-15T11:46:01.010Z,8.58
2023-03-15T11:48:55.816Z,8.61
2023-03-15T11:51:23.962Z,8.54
2023-03-15T11:54:05.563Z,8.58
2023-03-15T11:57:30.744Z,8.81
2023-03-15T12:00:16.198Z,9.12
2023-03-15T12:03:24.513Z,9.34
2023-03-15T12:06:12.555Z,9.17
2023-03-15T12:08:42.259Z,8.84
2023-03-15T12:11:24.877Z,8.99
2023-03-15T12:14:01.841Z,8.72
2023-03-15T12:16:34.789Z,8.89
2023-03-15T12:19:16.737Z,8.53
2023-03-15T12:21:53.317Z,8.51
2023-03-15T12:24:31.783Z,8.51
2023-03-15T12:27:20.708Z,8.53
2023-03-15T12:29:58.520Z,8.58
2023-03-15T12:32:27.599Z,8.05
2023-03-15T12:34:58.560Z,7.63
2023-03-15T12:37:56.494Z,7.91
2023-03-15T12:40:55.512Z,8.10
2023-03-15T12:43:44.062Z,7.95
2023-03-15T12:46:36.936Z,8.14
2023-03-15T12:49:24.460Z,8.19
2023-03-15T12:51:59.269Z,8.38
2023-03-15T12:54:39.247Z,8.22
2023-03-15T12:57:10.414Z,7.96
2023-03-15T12:59:53.858Z,7.93
2023-03-15T13:02:44.864Z,7.90
2023-03-15T13:05:21.310Z,7.88
2023-03-15T13:08:17.660Z,7.86
2023-03-15T13:11:06.852Z,7.81
2023-03-15T13:13:53.620Z,7.81
2023-03-15T13:16:29.028Z,7.94
2023-03-15T13:19:12.028Z,8.15
2023-03-15T13:22:02.084Z,8.34
2023-03-15T13:25:09.973Z,8.40
2023-03-15T13:27:46.410Z,8.41
2023-03-15T13:30:32.311Z,8.62
2023-03-15T13:33:21.161Z,8.01
2023-03-15T13:36:06.766Z,7.89
2023-03-15T13:38:43.682Z,7.74
2023-03-15T13:41:31.103Z,7.53
2023-03-15T13:44:02.471Z,7.69
2023-03-15T13:46:31.577Z,7.61
2023-03-15T13:49:01.441Z,7.76
2023-03-15T13:51:33.112Z,7.79
2023-03-15T13:54:24.240Z,7.97
2023-03-15T13:57:18.419Z,8.35
2023-03-15T14:00:10.735Z,8.18
2023-03-15T14:02:47.885Z,7.80
2023-03-15T14:05:27.359Z,7.63
2023-03-15T14:08:06.425Z,7.38
2023-03-15T14:10:38.962Z,7.24
2023-03-15T14:13:59.826Z,7.38
2023-03-15T14:16:34.674Z,7.44
2023-03-15T14:19:26.153Z,7.49
2023-03-15T14:22:23.008Z,7.30
2023-03-15T14:24:52.605Z,7.47
2023-03-15T14:27:28.399Z,7.37
2023-03-15T14:30:02.426Z,7.55
2023-03-15T14:32:33.268Z,7.64
2023-03-15T14:35:28.909Z,7.41
2023-03-15T14:38:23.435Z,7.32
2023-03-15T14:40:53.487Z,7.33
2023-03-15T14:43:21.292Z,7.40
2023-03-15T14:45:50.059Z,7.48
2023-03-15T14:48:43.956Z,7.34
2023-03-15T14:51:23.668Z,7.47
2023-03-15T14:53:56.603Z,7.10
2023-03-15T14:56:25.461Z,7.07
2023-03-15T14:58:54.270Z,6.88
2023-03-15T15:01:27.003Z,6.60
2023-03-15T15:03:59.784Z,6.43
2023-03-15T15:06:31.919Z,6.23
2023-03-15T15:09:03.062Z,6.31
2023-03-15T15:11:31.030Z,6.14
2023-03-15T15:13:58.764Z,5.99
2023-03-15T15:16:26.924Z,5.98
2023-03-15T15:18:54.687Z,5.96
2023-03-15T15:21:31.236Z,5.85
2023-03-15T15:24:03.389Z,5.93
2023-03-15T15:26:33.510Z,5.98
2023-03-15T15:29:01.316Z,6.05
2023-03-15T15:31:33.667Z,5.91
2023-03-15T15:34:02.029Z,5.89
2023-03-15T15:36:36.425Z,6.00
2023-03-15T15:39:10.502Z,5.97
2023-03-15T15:41:38.417Z,5.84
2023-03-15T15:44:16.477Z,5.72
2023-03-15T15:46:45.021Z,5.69
2023-03-15T15:49:12.983Z,5.69
2023-03-15T15:51:45.886Z,5.84
2023-03-15T15:54:24.888Z,5.77
2023-03-15T15:56:57.813Z,5.70
2023-03-15T15:59:26.115Z,5.66
2023-03-15T16:02:03.129Z,5.60
2023-03-15T16:04:32.725Z,5.56
2023-03-15T16:07:03.553Z,5.47
2023-03-15T16:09:36.115Z,5.40
2023-03-15T16:12:14.401Z,5.45
2023-03-15T16:14:42.786Z,5.59
2023-03-15T16:17:22.538Z,5.46
2023-03-15T16:19:54.487Z,5.37
2023-03-15T16:22:23.813Z,5.29
2023-03-15T16:24:54.774Z,5.30
2023-03-15T16:27:26.914Z,5.16
2023-03-15T16:29:56.186Z,5.16
2023-03-15T16:32:41.071Z,4.99
2023-03-15T16:35:16.238Z,4.88
2023-03-15T16:37:45.814Z,4.86
2023-03-15T16:40:25.393Z,4.94
2023-03-15T16:42:53.412Z,4.86
2023-03-15T16:45:21.596Z,4.66
2023-03-15T16:47:50.080Z,4.59
2023-03-15T16:50:18.747Z,4.56
2023-03-15T16:52:49.577Z,4.44
2023-03-15T16:55:22.173Z,4.33
2023-03-15T16:57:50.192Z,4.29
2023-03-15T17:00:18.410Z,4.25
2023-03-15T17:02:48.420Z,4.24
2023-03-15T17:05:20.937Z,4.06
2023-03-15T17:07:50.596Z,3.97
2023-03-15T17:10:24.407Z,3.94
2023-03-15T17:12:54.070Z,3.63
2023-03-15T17:15:24.947Z,3.52
2023-03-15T17:17:57.206Z,3.31
2023-03-15T17:20:29.428Z,3.19
2023-03-15T17:23:01.404Z,3.05
2023-03-15T17:25:30.272Z,2.89
2023-03-15T17:27:58.190Z,2.73
2023-03-15T17:30:31.989Z,2.70
2023-03-15T17:33:00.956Z,2.64
2023-03-15T17:35:35.093Z,2.53
2023-03-15T17:38:05.989Z,2.40
2023-03-15T17:40:36.335Z,2.31
2023-03-15T17:43:04.910Z,2.25
2023-03-15T17:45:34.518Z,2.10
2023-03-15T17:48:02.754Z,2.11
2023-03-15T17:50:33.255Z,2.12
2023-03-15T17:53:04.265Z,2.00
2023-03-15T17:55:35.787Z,1.94
2023-03-15T17:58:09.286Z,1.81
2023-03-15T18:00:37.297Z,1.76
2023-03-15T18:03:05.322Z,1.69
2023-03-15T18:05:33.004Z,1.53
2023-03-15T18:08:03.952Z,1.47
2023-03-15T18:10:38.393Z,1.53
2023-03-15T18:13:06.557Z,1.49
2023-03-15T18:15:34.235Z,1.34
2023-03-15T18:18:03.591Z,1.44
2023-03-15T18:20:32.726Z,1.29
2023-03-15T18:23:00.664Z,1.17
2023-03-15T18:25:31.511Z,1.07
2023-03-15T18:28:00.523Z,1.09
2023-03-15T18:30:30.887Z,1.09
2023-03-15T18:32:59.764Z,1.03
2023-03-15T18:35:29.708Z,0.86
2023-03-15T18:37:58.224Z,0.68
2023-03-15T18:40:29.574Z,0.69
2023-03-15T18:42:58.739Z,0.63
2023-03-15T18:45:32.492Z,0.72
2023-03-15T18:48:00.542Z,0.72
2023-03-15T18:50:29.321Z,0.62
2023-03-15T18:52:57.914Z,0.63
2023-03-15T18:55:25.783Z,0.54
2023-03-15T18:57:55.072Z,0.41
2023-03-15T19:00:26.872Z,0.27
2023-03-15T19:02:58.159Z,0.11
2023-03-15T19:05:27.182Z,0.04
2023-03-15T19:07:55.316Z,-0.07
2023-03-15T19:10:24.639Z,-0.14
2023-03-15T19:12:53.479Z,-0.08
2023-03-15T19:15:23.015Z,0.09
2023-03-15T19:17:54.624Z,0.18
2023-03-15T19:20:24.608Z,0.21
2023-03-15T19:22:52.819Z,0.19
2023-03-15T19:25:21.523Z,0.07
2023-03-15T19:27:49.433Z,0.10
2023-03-15T19:30:20.977Z,0.13
2023-03-15T19:32:50.091Z,0.36
2023-03-15T19:35:19.691Z,0.35
2023-03-15T19:37:48.795Z,0.26
2023-03-15T19:40:17.893Z,0.31
2023-03-15T19:42:46.801Z,0.20
2023-03-15T19:45:15.539Z,0.22
2023-03-15T19:47:43.339Z,0.26
2023-03-15T19:50:13.953Z,0.27
2023-03-15T19:52:48.796Z,0.25
2023-03-15T19:55:19.099Z,0.17
2023-03-15T19:57:47.490Z,0.03
2023-03-15T20:00:18.913Z,0.04
2023-03-15T20:02:47.728Z,-0.05
2023-03-15T20:05:18.623Z,-0.07
2023-03-15T20:07:47.609Z,-0.10
2023-03-15T20:10:15.720Z,-0.15
2023-03-15T20:12:45.345Z,-0.17
2023-03-15T20:15:16.511Z,-0.06
2023-03-15T20:17:45.098Z,-0.07
2023-03-15T20:20:14.672Z,0.12
2023-03-15T20:22:44.689Z,0.28
2023-03-15T20:25:16.079Z,0.33
2023-03-15T20:27:43.886Z,0.39
2023-03-15T20:30:14.792Z,0.38
2023-03-15T20:32:43.406Z,0.47
2023-03-15T20:35:12.171Z,0.32
2023-03-15T20:37:41.633Z,0.45
2023-03-15T20:40:13.359Z,0.64
2023-03-15T20:42:42.130Z,0.49
2023-03-15T20:45:12.376Z,0.43
2023-03-15T20:47:41.213Z,0.33
2023-03-15T20:50:11.760Z,0.35
2023-03-15T20:52:40.945Z,0.33
2023-03-15T20:55:10.530Z,0.36
2023-03-15T20:57:41.368Z,0.28
2023-03-15T21:00:19.048Z,0.26
2023-03-15T21:02:47.821Z,0.25
2023-03-15T21:05:17.087Z,0.18
2023-03-15T21:07:45.677Z,0.20
2023-03-15T21:10:14.181Z,0.05
2023-03-15T21:12:42.300Z,0.07
2023-03-15T21:15:17.654Z,0.03
2023-03-15T21:17:48.915Z,-0.06
2023-03-15T21:20:18.031Z,-0.17
2023-03-15T21:22:45.796Z,-0.25
2023-03-15T21:25:13.680Z,-0.22
2023-03-15T21:27:41.447Z,-0.31
2023-03-15T21:30:10.385Z,-0.30
2023-03-15T21:32:38.384Z,-0.25
2023-03-15T21:35:07.185Z,-0.21
2023-03-15T21:37:35.250Z,-0.21
2023-03-15T21:40:05.104Z,-0.25
2023-03-15T21:42:34.098Z,-0.21
2023-03-15T21:45:02.167Z,-0.18
2023-03-15T21:47:30.080Z,-0.15
2023-03-15T21:49:58.003Z,-0.10
2023-03-15T21:52:26.271Z,-0.06
2023-03-15T21:54:54.431Z,0.10
2023-03-15T21:57:22.377Z,0.11
2023-03-15T21:59:50.874Z,0.03
2023-03-15T22:02:18.607Z,0.02
2023-03-15T22:04:46.903Z,0.06
2023-03-15T22:07:14.595Z,0.19
2023-03-15T22:09:43.618Z,0.18
2023-03-15T22:12:12.967Z,0.17
2023-03-15T22:14:43.538Z,0.11
2023-03-15T22:17:13.369Z,0.19
2023-03-15T22:19:41.640Z,0.17
2023-03-15T22:22:09.927Z,0.18
2023-03-15T22:24:37.819Z,0.17
2023-03-15T22:27:05.599Z,0.16
2023-03-15T22:29:33.921Z,0.17
2023-03-15T22:32:01.642Z,0.28
2023-03-15T22:34:29.531Z,0.21
2023-03-15T22:36:57.222Z,0.21
2023-03-15T22:39:26.137Z,0.49
2023-03-15T22:41:54.211Z,0.42
2023-03-15T22:44:22.390Z,0.28
2023-03-15T22:46:50.239Z,0.15
2023-03-15T22:49:18.308Z,0.11
2023-03-15T22:51:45.959Z,0.05
2023-03-15T22:54:15.115Z,-0.03
2023-03-15T22:56:42.867Z,0.01
2023-03-15T22:59:10.905Z,0.05
2023-03-15T23:01:38.625Z,-0.06
2023-03-15T23:04:06.770Z,-0.03
2023-03-15T23:06:34.425Z,-0.05
2023-03-15T23:09:03.916Z,-0.01
2023-03-15T23:11:32.703Z,-0.11
2023-03-15T23:14:00.682Z,-0.11
2023-03-15T23:16:28.409Z,0.02
2023-03-15T23:18:56.372Z,0.08
2023-03-15T23:21:24.129Z,-0.09
2023-03-15T23:23:52.105Z,-0.12
2023-03-15T23:26:20.741Z,-0.03
2023-03-15T23:28:48.624Z,-0.19
2023-03-15T23:31:16.344Z,-0.13
2023-03-15T23:33:47.060Z,-0.19
2023-03-15T23:36:15.112Z,-0.19
2023-03-15T23:38:43.213Z,-0.12
2023-03-15T23:41:12.474Z,-0.10
2023-03-15T23:43:41.644Z,-0.14
2023-03-15T23:46:09.927Z,-0.11
2023-03-15T23:48:37.884Z,-0.22
2023-03-15T23:51:05.874Z,-0.26
2023-03-15T23:53:34.269Z,-0.30
2023-03-15T23:56:02.666Z,-0.32
2023-03-15T23:58:30.698Z,-0.43
